sensor_id;sensor_type;location;lat;lon;timestamp;pressure;altitude;pressure_sealevel;temperature;humidity
55671;BME280;41551;47.500;8.408;2022-07-06T00:00:18;96795.91;;;15.97;84.55
55671;BME280;41551;47.500;8.408;2022-07-06T00:02:45;96790.03;;;15.90;84.87
55671;BME280;41551;47.500;8.408;2022-07-06T00:05:12;96788.69;;;15.88;84.31
55671;BME280;41551;47.500;8.408;2022-07-06T00:07:38;96788.97;;;15.86;81.77
55671;BME280;41551;47.500;8.408;2022-07-06T00:10:07;96788.44;;;15.84;82.35
55671;BME280;41551;47.500;8.408;2022-07-06T00:12:34;96797.75;;;15.81;83.82
55671;BME280;41551;47.500;8.408;2022-07-06T00:15:00;96806.53;;;15.82;82.27
55671;BME280;41551;47.500;8.408;2022-07-06T00:17:27;96815.78;;;15.74;84.33
55671;BME280;41551;47.500;8.408;2022-07-06T00:19:54;96819.22;;;15.64;86.26
55671;BME280;41551;47.500;8.408;2022-07-06T00:22:21;96815.72;;;15.49;86.95
55671;BME280;41551;47.500;8.408;2022-07-06T00:24:47;96819.72;;;15.46;86.30
55671;BME280;41551;47.500;8.408;2022-07-06T00:27:15;96813.84;;;15.39;86.56
55671;BME280;41551;47.500;8.408;2022-07-06T00:29:42;96819.13;;;15.28;86.53
55671;BME280;41551;47.500;8.408;2022-07-06T00:32:09;96820.22;;;15.27;85.77
55671;BME280;41551;47.500;8.408;2022-07-06T00:34:37;96816.78;;;15.42;83.36
55671;BME280;41551;47.500;8.408;2022-07-06T00:37:04;96806.97;;;15.48;82.86
55671;BME280;41551;47.500;8.408;2022-07-06T00:39:31;96812.81;;;15.40;83.07
55671;BME280;41551;47.500;8.408;2022-07-06T00:41:58;96811.72;;;15.41;82.65
55671;BME280;41551;47.500;8.408;2022-07-06T00:44:26;96803.25;;;15.54;80.95
55671;BME280;41551;47.500;8.408;2022-07-06T00:46:54;96803.22;;;15.34;84.25
55671;BME280;41551;47.500;8.408;2022-07-06T00:49:21;96810.38;;;15.28;85.10
55671;BME280;41551;47.500;8.408;2022-07-06T00:52:05;96807.97;;;15.21;85.59
55671;BME280;41551;47.500;8.408;2022-07-06T00:54:32;96807.41;;;15.19;85.27
55671;BME280;41551;47.500;8.408;2022-07-06T00:56:59;96806.84;;;15.07;88.01
55671;BME280;41551;47.500;8.408;2022-07-06T00:59:27;96810.53;;;15.06;87.73
55671;BME280;41551;47.500;8.408;2022-07-06T01:01:54;96801.78;;;15.05;87.93
55671;BME280;41551;47.500;8.408;2022-07-06T01:04:21;96801.00;;;15.15;85.89
55671;BME280;41551;47.500;8.408;2022-07-06T01:06:48;96796.22;;;15.12;86.07
55671;BME280;41551;47.500;8.408;2022-07-06T01:09:14;96796.78;;;15.19;85.39
55671;BME280;41551;47.500;8.408;2022-07-06T01:11:42;96800.00;;;15.21;85.20
55671;BME280;41551;47.500;8.408;2022-07-06T01:14:09;96797.31;;;15.16;85.81
55671;BME280;41551;47.500;8.408;2022-07-06T01:16:39;96794.66;;;15.11;85.56
55671;BME280;41551;47.500;8.408;2022-07-06T01:19:05;96790.63;;;15.08;86.29
55671;BME280;41551;47.500;8.408;2022-07-06T01:21:33;96791.16;;;15.05;86.91
55671;BME280;41551;47.500;8.408;2022-07-06T01:24:00;96790.91;;;15.07;86.73
55671;BME280;41551;47.500;8.408;2022-07-06T01:26:27;96791.16;;;15.10;86.69
55671;BME280;41551;47.500;8.408;2022-07-06T01:28:54;96779.22;;;15.08;86.94
55671;BME280;41551;47.500;8.408;2022-07-06T01:31:22;96790.63;;;15.08;87.29
55671;BME280;41551;47.500;8.408;2022-07-06T01:33:51;96785.59;;;15.07;87.51
55671;BME280;41551;47.500;8.408;2022-07-06T01:36:19;96789.28;;;15.01;87.94
55671;BME280;41551;47.500;8.408;2022-07-06T01:38:48;96782.59;;;14.88;89.13
55671;BME280;41551;47.500;8.408;2022-07-06T01:41:15;96796.88;;;14.82;89.94
55671;BME280;41551;47.500;8.408;2022-07-06T01:43:42;96792.13;;;14.84;88.73
55671;BME280;41551;47.500;8.408;2022-07-06T01:46:10;96789.19;;;14.80;89.01
55671;BME280;41551;47.500;8.408;2022-07-06T01:48:37;96781.19;;;14.70;89.93
55671;BME280;41551;47.500;8.408;2022-07-06T01:51:04;96785.94;;;14.68;90.73
55671;BME280;41551;47.500;8.408;2022-07-06T01:53:32;96791.75;;;14.65;90.99
55671;BME280;41551;47.500;8.408;2022-07-06T01:56:00;96792.28;;;14.62;90.78
55671;BME280;41551;47.500;8.408;2022-07-06T01:58:26;96781.97;;;14.70;90.50
55671;BME280;41551;47.500;8.408;2022-07-06T02:00:53;96787.59;;;14.79;89.65
55671;BME280;41551;47.500;8.408;2022-07-06T02:03:20;96781.22;;;14.75;89.69
55671;BME280;41551;47.500;8.408;2022-07-06T02:05:47;96782.75;;;14.66;89.50
55671;BME280;41551;47.500;8.408;2022-07-06T02:08:14;96786.97;;;14.62;89.64
55671;BME280;41551;47.500;8.408;2022-07-06T02:10:40;96791.22;;;14.63;89.26
55671;BME280;41551;47.500;8.408;2022-07-06T02:13:09;96792.50;;;14.60;90.04
55671;BME280;41551;47.500;8.408;2022-07-06T02:15:35;96789.06;;;14.60;88.79
55671;BME280;41551;47.500;8.408;2022-07-06T02:18:02;96789.66;;;14.67;87.63
55671;BME280;41551;47.500;8.408;2022-07-06T02:20:29;96793.09;;;14.62;87.72
55671;BME280;41551;47.500;8.408;2022-07-06T02:22:55;96786.41;;;14.60;87.01
55671;BME280;41551;47.500;8.408;2022-07-06T02:25:22;96785.84;;;14.52;86.88
55671;BME280;41551;47.500;8.408;2022-07-06T02:27:49;96784.97;;;14.42;88.46
55671;BME280;41551;47.500;8.408;2022-07-06T02:30:17;96799.00;;;14.32;90.96
55671;BME280;41551;47.500;8.408;2022-07-06T02:32:44;96799.44;;;14.24;91.52
55671;BME280;41551;47.500;8.408;2022-07-06T02:35:11;96800.72;;;14.16;92.63
55671;BME280;41551;47.500;8.408;2022-07-06T02:37:38;96806.19;;;14.04;93.76
55671;BME280;41551;47.500;8.408;2022-07-06T02:40:05;96805.63;;;13.97;94.75
55671;BME280;41551;47.500;8.408;2022-07-06T02:42:32;96805.06;;;13.95;94.79
55671;BME280;41551;47.500;8.408;2022-07-06T02:44:59;96803.97;;;13.91;95.46
55671;BME280;41551;47.500;8.408;2022-07-06T02:47:27;96797.25;;;13.83;96.19
55671;BME280;41551;47.500;8.408;2022-07-06T02:49:54;96799.34;;;13.76;96.64
55671;BME280;41551;47.500;8.408;2022-07-06T02:52:21;96805.19;;;13.78;96.49
55671;BME280;41551;47.500;8.408;2022-07-06T02:54:48;96810.97;;;13.70;94.84
55671;BME280;41551;47.500;8.408;2022-07-06T02:57:15;96806.03;;;13.83;92.32
55671;BME280;41551;47.500;8.408;2022-07-06T02:59:42;96812.41;;;13.88;90.86
55671;BME280;41551;47.500;8.408;2022-07-06T03:02:09;96811.34;;;13.83;88.09
55671;BME280;41551;47.500;8.408;2022-07-06T03:04:37;96815.56;;;13.84;88.86
55671;BME280;41551;47.500;8.408;2022-07-06T03:07:04;96822.94;;;13.77;92.15
55671;BME280;41551;47.500;8.408;2022-07-06T03:09:31;96826.78;;;13.64;95.17
55671;BME280;41551;47.500;8.408;2022-07-06T03:11:57;96824.97;;;13.65;94.85
55671;BME280;41551;47.500;8.408;2022-07-06T03:14:25;96825.00;;;13.70;93.80
55671;BME280;41551;47.500;8.408;2022-07-06T03:16:52;96826.59;;;13.71;94.67
55671;BME280;41551;47.500;8.408;2022-07-06T03:19:19;96823.75;;;13.78;91.75
55671;BME280;41551;47.500;8.408;2022-07-06T03:21:47;96828.69;;;13.69;90.77
55671;BME280;41551;47.500;8.408;2022-07-06T03:24:14;96823.34;;;13.64;92.22
55671;BME280;41551;47.500;8.408;2022-07-06T03:26:41;96821.94;;;13.56;95.15
55671;BME280;41551;47.500;8.408;2022-07-06T03:29:07;96823.34;;;13.64;95.51
55671;BME280;41551;47.500;8.408;2022-07-06T03:31:34;96827.09;;;13.68;95.89
55671;BME280;41551;47.500;8.408;2022-07-06T03:34:01;96822.75;;;13.57;96.42
55671;BME280;41551;47.500;8.408;2022-07-06T03:36:28;96824.03;;;13.54;95.01
55671;BME280;41551;47.500;8.408;2022-07-06T03:38:56;96816.66;;;13.56;93.16
55671;BME280;41551;47.500;8.408;2022-07-06T03:41:23;96822.19;;;13.55;88.08
55671;BME280;41551;47.500;8.408;2022-07-06T03:43:49;96826.75;;;13.59;86.94
55671;BME280;41551;47.500;8.408;2022-07-06T03:46:16;96822.19;;;13.55;88.89
55671;BME280;41551;47.500;8.408;2022-07-06T03:48:43;96827.94;;;13.46;91.37
55671;BME280;41551;47.500;8.408;2022-07-06T03:51:09;96822.09;;;13.44;91.91
55671;BME280;41551;47.500;8.408;2022-07-06T03:53:37;96815.69;;;13.40;91.44
55671;BME280;41551;47.500;8.408;2022-07-06T03:56:05;96815.69;;;13.40;92.67
55671;BME280;41551;47.500;8.408;2022-07-06T03:58:49;96819.94;;;13.41;93.99
55671;BME280;41551;47.500;8.408;2022-07-06T04:01:16;96825.78;;;13.43;94.66
55671;BME280;41551;47.500;8.408;2022-07-06T04:03:42;96825.34;;;13.52;93.83
55671;BME280;41551;47.500;8.408;2022-07-06T04:06:10;96829.34;;;13.32;95.36
55671;BME280;41551;47.500;8.408;2022-07-06T04:08:36;96830.09;;;13.27;95.97
55671;BME280;41551;47.500;8.408;2022-07-06T04:11:05;96824.22;;;13.25;94.42
55671;BME280;41551;47.500;8.408;2022-07-06T04:13:31;96824.41;;;13.19;95.67
55671;BME280;41551;47.500;8.408;2022-07-06T04:15:58;96818.63;;;13.22;95.59
55671;BME280;41551;47.500;8.408;2022-07-06T04:18:25;96818.13;;;13.25;95.19
55671;BME280;41551;47.500;8.408;2022-07-06T04:20:52;96830.34;;;13.26;94.91
55671;BME280;41551;47.500;8.408;2022-07-06T04:23:19;96825.28;;;13.24;95.47
55671;BME280;41551;47.500;8.408;2022-07-06T04:25:46;96826.13;;;13.30;94.60
55671;BME280;41551;47.500;8.408;2022-07-06T04:28:14;96827.59;;;13.38;93.95
55671;BME280;41551;47.500;8.408;2022-07-06T04:30:40;96829.50;;;13.42;92.57
55671;BME280;41551;47.500;8.408;2022-07-06T04:33:07;96825.50;;;13.40;92.88
55671;BME280;41551;47.500;8.408;2022-07-06T04:35:34;96827.69;;;13.48;88.99
55671;BME280;41551;47.500;8.408;2022-07-06T04:38:01;96830.69;;;13.57;91.20
55671;BME280;41551;47.500;8.408;2022-07-06T04:40:28;96832.09;;;13.64;91.22
55671;BME280;41551;47.500;8.408;2022-07-06T04:42:54;96833.00;;;13.75;89.81
55671;BME280;41551;47.500;8.408;2022-07-06T04:45:22;96839.75;;;13.88;89.70
55671;BME280;41551;47.500;8.408;2022-07-06T04:47:49;96836.94;;;14.00;89.58
55671;BME280;41551;47.500;8.408;2022-07-06T04:50:16;96831.69;;;14.10;88.76
55671;BME280;41551;47.500;8.408;2022-07-06T04:52:43;96821.69;;;14.17;87.84
55671;BME280;41551;47.500;8.408;2022-07-06T04:55:09;96830.78;;;14.27;86.95
55671;BME280;41551;47.500;8.408;2022-07-06T04:57:36;96832.75;;;14.42;83.49
55671;BME280;41551;47.500;8.408;2022-07-06T05:00:04;96831.50;;;14.54;81.81
55671;BME280;41551;47.500;8.408;2022-07-06T05:02:33;96823.88;;;14.63;79.94
55671;BME280;41551;47.500;8.408;2022-07-06T05:04:59;96830.09;;;14.79;80.71
55671;BME280;41551;47.500;8.408;2022-07-06T05:07:26;96828.03;;;14.91;78.98
55671;BME280;41551;47.500;8.408;2022-07-06T05:09:54;96824.34;;;15.03;78.38
55671;BME280;41551;47.500;8.408;2022-07-06T05:12:21;96829.19;;;15.16;78.11
55671;BME280;41551;47.500;8.408;2022-07-06T05:14:48;96834.53;;;15.26;77.19
55671;BME280;41551;47.500;8.408;2022-07-06T05:17:15;96831.69;;;15.49;77.56
55671;BME280;41551;47.500;8.408;2022-07-06T05:19:43;96835.16;;;15.54;76.04
55671;BME280;41551;47.500;8.408;2022-07-06T05:22:10;96833.56;;;15.63;78.32
55671;BME280;41551;47.500;8.408;2022-07-06T05:24:37;96843.72;;;15.72;78.99
55671;BME280;41551;47.500;8.408;2022-07-06T05:27:04;96839.72;;;15.74;78.09
55671;BME280;41551;47.500;8.408;2022-07-06T05:29:30;96839.75;;;15.85;76.37
55671;BME280;41551;47.500;8.408;2022-07-06T05:31:57;96836.84;;;15.96;73.61
55671;BME280;41551;47.500;8.408;2022-07-06T05:34:24;96843.25;;;16.06;71.64
55671;BME280;41551;47.500;8.408;2022-07-06T05:36:52;96841.38;;;16.16;72.26
55671;BME280;41551;47.500;8.408;2022-07-06T05:39:19;96835.00;;;16.33;70.62
55671;BME280;41551;47.500;8.408;2022-07-06T05:41:48;96838.47;;;16.49;69.23
55671;BME280;41551;47.500;8.408;2022-07-06T05:44:15;96841.09;;;16.64;68.20
55671;BME280;41551;47.500;8.408;2022-07-06T05:46:42;96843.47;;;16.76;68.13
55671;BME280;41551;47.500;8.408;2022-07-06T05:49:08;96837.31;;;16.91;67.03
55671;BME280;41551;47.500;8.408;2022-07-06T05:51:53;96838.34;;;17.00;67.01
55671;BME280;41551;47.500;8.408;2022-07-06T05:54:20;96838.88;;;17.13;67.40
55671;BME280;41551;47.500;8.408;2022-07-06T05:56:47;96841.53;;;17.13;69.94
55671;BME280;41551;47.500;8.408;2022-07-06T05:59:14;96849.19;;;17.25;70.59
55671;BME280;41551;47.500;8.408;2022-07-06T06:01:40;96840.09;;;17.36;69.29
55671;BME280;41551;47.500;8.408;2022-07-06T06:04:07;96839.78;;;17.43;69.15
55671;BME280;41551;47.500;8.408;2022-07-06T06:06:34;96840.88;;;17.42;69.35
55671;BME280;41551;47.500;8.408;2022-07-06T06:09:02;96844.28;;;17.47;68.54
55671;BME280;41551;47.500;8.408;2022-07-06T06:11:29;96840.25;;;17.60;68.41
55671;BME280;41551;47.500;8.408;2022-07-06T06:13:55;96838.84;;;17.68;68.33
55671;BME280;41551;47.500;8.408;2022-07-06T06:16:22;96839.91;;;17.67;67.83
55671;BME280;41551;47.500;8.408;2022-07-06T06:18:49;96838.31;;;17.66;67.89
55671;BME280;41551;47.500;8.408;2022-07-06T06:21:16;96846.47;;;17.85;66.92
55671;BME280;41551;47.500;8.408;2022-07-06T06:23:42;96845.91;;;17.93;64.14
55671;BME280;41551;47.500;8.408;2022-07-06T06:26:11;96846.91;;;18.07;64.44
55671;BME280;41551;47.500;8.408;2022-07-06T06:28:37;96844.19;;;18.13;63.78
55671;BME280;41551;47.500;8.408;2022-07-06T06:31:04;96842.47;;;18.27;62.35
55671;BME280;41551;47.500;8.408;2022-07-06T06:33:31;96841.84;;;18.40;63.99
55671;BME280;41551;47.500;8.408;2022-07-06T06:35:57;96839.88;;;18.46;61.58
55671;BME280;41551;47.500;8.408;2022-07-06T06:38:24;96842.06;;;18.44;62.54
55671;BME280;41551;47.500;8.408;2022-07-06T06:40:53;96845.97;;;18.81;58.43
55671;BME280;41551;47.500;8.408;2022-07-06T06:43:21;96840.59;;;18.57;61.30
55671;BME280;41551;47.500;8.408;2022-07-06T06:45:48;96845.69;;;18.82;60.92
55671;BME280;41551;47.500;8.408;2022-07-06T06:48:14;96837.31;;;18.94;59.34
55671;BME280;41551;47.500;8.408;2022-07-06T06:50:43;96841.59;;;18.95;59.19
55671;BME280;41551;47.500;8.408;2022-07-06T06:53:09;96840.66;;;19.05;58.98
55671;BME280;41551;47.500;8.408;2022-07-06T06:55:36;96840.16;;;19.03;58.59
55671;BME280;41551;47.500;8.408;2022-07-06T06:58:03;96837.38;;;19.13;57.60
55671;BME280;41551;47.500;8.408;2022-07-06T07:00:31;96842.75;;;19.08;58.06
55671;BME280;41551;47.500;8.408;2022-07-06T07:02:58;96834.88;;;19.22;57.61
55671;BME280;41551;47.500;8.408;2022-07-06T07:05:24;96838.25;;;19.28;57.72
55671;BME280;41551;47.500;8.408;2022-07-06T07:07:51;96833.66;;;19.09;57.28
55671;BME280;41551;47.500;8.408;2022-07-06T07:10:20;96832.72;;;19.00;58.47
55671;BME280;41551;47.500;8.408;2022-07-06T07:12:47;96829.25;;;19.43;55.58
55671;BME280;41551;47.500;8.408;2022-07-06T07:15:14;96831.72;;;19.39;57.35
55671;BME280;41551;47.500;8.408;2022-07-06T07:17:43;96833.34;;;19.35;56.68
55671;BME280;41551;47.500;8.408;2022-07-06T07:20:11;96824.69;;;19.43;56.64
55671;BME280;41551;47.500;8.408;2022-07-06T07:22:38;96825.72;;;19.47;56.41
55671;BME280;41551;47.500;8.408;2022-07-06T07:25:05;96818.72;;;19.51;55.04
55671;BME280;41551;47.500;8.408;2022-07-06T07:27:32;96826.38;;;19.58;56.07
55671;BME280;41551;47.500;8.408;2022-07-06T07:29:59;96833.97;;;19.70;56.05
55671;BME280;41551;47.500;8.408;2022-07-06T07:32:26;96825.94;;;19.70;54.19
55671;BME280;41551;47.500;8.408;2022-07-06T07:34:54;96829.97;;;19.67;55.67
55671;BME280;41551;47.500;8.408;2022-07-06T07:37:21;96825.44;;;19.87;54.90
55671;BME280;41551;47.500;8.408;2022-07-06T07:39:47;96829.28;;;19.81;54.05
55671;BME280;41551;47.500;8.408;2022-07-06T07:42:14;96836.09;;;19.92;53.67
55671;BME280;41551;47.500;8.408;2022-07-06T07:44:41;96833.56;;;19.82;54.07
55671;BME280;41551;47.500;8.408;2022-07-06T07:47:08;96829.88;;;19.97;53.69
55671;BME280;41551;47.500;8.408;2022-07-06T07:49:34;96832.69;;;19.86;53.30
55671;BME280;41551;47.500;8.408;2022-07-06T07:52:03;96831.53;;;19.93;53.49
55671;BME280;41551;47.500;8.408;2022-07-06T07:54:30;96827.09;;;20.02;53.76
55671;BME280;41551;47.500;8.408;2022-07-06T07:56:57;96828.94;;;20.20;52.45
55671;BME280;41551;47.500;8.408;2022-07-06T07:59:23;96834.75;;;20.09;52.45
55671;BME280;41551;47.500;8.408;2022-07-06T08:01:51;96820.13;;;20.20;52.85
55671;BME280;41551;47.500;8.408;2022-07-06T08:04:17;96833.56;;;20.34;53.06
55671;BME280;41551;47.500;8.408;2022-07-06T08:06:44;96832.72;;;20.19;52.94
55671;BME280;41551;47.500;8.408;2022-07-06T08:09:12;96822.84;;;20.34;53.37
55671;BME280;41551;47.500;8.408;2022-07-06T08:11:41;96820.16;;;20.34;52.81
55671;BME280;41551;47.500;8.408;2022-07-06T08:14:07;96830.13;;;20.47;52.66
55671;BME280;41551;47.500;8.408;2022-07-06T08:16:34;96828.25;;;20.62;52.92
55671;BME280;41551;47.500;8.408;2022-07-06T08:19:01;96818.28;;;20.81;51.80
55671;BME280;41551;47.500;8.408;2022-07-06T08:21:28;96816.91;;;20.98;51.40
55671;BME280;41551;47.500;8.408;2022-07-06T08:23:55;96821.06;;;21.04;52.12
55671;BME280;41551;47.500;8.408;2022-07-06T08:26:25;96830.19;;;21.03;51.45
55671;BME280;41551;47.500;8.408;2022-07-06T08:28:52;96823.06;;;21.12;50.74
55671;BME280;41551;47.500;8.408;2022-07-06T08:31:20;96824.81;;;21.03;50.34
55671;BME280;41551;47.500;8.408;2022-07-06T08:33:47;96827.81;;;21.15;51.25
55671;BME280;41551;47.500;8.408;2022-07-06T08:36:14;96822.22;;;21.25;51.57
55671;BME280;41551;47.500;8.408;2022-07-06T08:38:41;96815.47;;;21.28;51.04
55671;BME280;41551;47.500;8.408;2022-07-06T08:41:09;96825.13;;;21.29;50.29
55671;BME280;41551;47.500;8.408;2022-07-06T08:43:38;96823.84;;;21.26;50.56
55671;BME280;41551;47.500;8.408;2022-07-06T08:46:05;96831.19;;;21.07;50.86
55671;BME280;41551;47.500;8.408;2022-07-06T08:48:36;96825.44;;;20.86;51.50
55671;BME280;41551;47.500;8.408;2022-07-06T08:51:04;96832.19;;;21.25;52.03
55671;BME280;41551;47.500;8.408;2022-07-06T08:53:31;96833.16;;;21.43;50.59
55671;BME280;41551;47.500;8.408;2022-07-06T08:55:57;96837.75;;;21.56;50.77
55671;BME280;41551;47.500;8.408;2022-07-06T08:58:25;96825.38;;;21.69;51.22
55671;BME280;41551;47.500;8.408;2022-07-06T09:00:54;96832.16;;;21.89;49.99
55671;BME280;41551;47.500;8.408;2022-07-06T09:03:21;96830.16;;;22.17;48.54
55671;BME280;41551;47.500;8.408;2022-07-06T09:05:50;96831.81;;;22.05;48.74
55671;BME280;41551;47.500;8.408;2022-07-06T09:08:18;96832.59;;;22.05;48.72
55671;BME280;41551;47.500;8.408;2022-07-06T09:10:45;96839.19;;;21.99;48.77
55671;BME280;41551;47.500;8.408;2022-07-06T09:13:11;96841.03;;;21.90;49.43
55671;BME280;41551;47.500;8.408;2022-07-06T09:15:38;96842.13;;;21.89;49.05
55671;BME280;41551;47.500;8.408;2022-07-06T09:18:06;96845.25;;;21.68;48.81
55671;BME280;41551;47.500;8.408;2022-07-06T09:20:34;96853.97;;;21.74;48.72
55671;BME280;41551;47.500;8.408;2022-07-06T09:23:02;96849.22;;;21.71;49.32
55671;BME280;41551;47.500;8.408;2022-07-06T09:25:30;96835.84;;;21.93;47.48
55671;BME280;41551;47.500;8.408;2022-07-06T09:27:58;96846.09;;;22.14;48.07
55671;BME280;41551;47.500;8.408;2022-07-06T09:30:26;96847.94;;;22.05;47.12
55671;BME280;41551;47.500;8.408;2022-07-06T09:32:54;96848.06;;;22.22;46.89
55671;BME280;41551;47.500;8.408;2022-07-06T09:35:24;96857.84;;;22.41;47.00
55671;BME280;41551;47.500;8.408;2022-07-06T09:38:02;96848.28;;;22.57;44.55
55671;BME280;41551;47.500;8.408;2022-07-06T09:40:31;96848.66;;;22.64;44.98
55671;BME280;41551;47.500;8.408;2022-07-06T09:43:09;96846.28;;;22.63;44.60
55671;BME280;41551;47.500;8.408;2022-07-06T09:45:37;96843.34;;;22.82;44.56
55671;BME280;41551;47.500;8.408;2022-07-06T09:48:06;96845.09;;;22.86;43.88
55671;BME280;41551;47.500;8.408;2022-07-06T09:50:40;96847.28;;;22.76;44.13
55671;BME280;41551;47.500;8.408;2022-07-06T09:53:07;96849.84;;;22.81;44.65
55671;BME280;41551;47.500;8.408;2022-07-06T09:55:34;96852.88;;;22.88;45.70
55671;BME280;41551;47.500;8.408;2022-07-06T09:58:00;96845.00;;;22.92;45.09
55671;BME280;41551;47.500;8.408;2022-07-06T10:00:27;96850.94;;;22.80;45.16
55671;BME280;41551;47.500;8.408;2022-07-06T10:02:54;96850.78;;;22.76;46.22
55671;BME280;41551;47.500;8.408;2022-07-06T10:05:22;96844.16;;;22.82;46.32
55671;BME280;41551;47.500;8.408;2022-07-06T10:07:56;96850.28;;;22.74;46.09
55671;BME280;41551;47.500;8.408;2022-07-06T10:10:25;96854.09;;;22.82;45.61
55671;BME280;41551;47.500;8.408;2022-07-06T10:12:54;96849.19;;;22.75;43.84
55671;BME280;41551;47.500;8.408;2022-07-06T10:15:21;96848.72;;;22.73;43.99
55671;BME280;41551;47.500;8.408;2022-07-06T10:17:49;96851.09;;;22.83;43.07
55671;BME280;41551;47.500;8.408;2022-07-06T10:20:17;96844.88;;;23.05;42.96
55671;BME280;41551;47.500;8.408;2022-07-06T10:22:44;96851.56;;;23.17;42.64
55671;BME280;41551;47.500;8.408;2022-07-06T10:25:14;96848.97;;;23.03;42.85
55671;BME280;41551;47.500;8.408;2022-07-06T10:27:42;96845.25;;;23.13;41.39
55671;BME280;41551;47.500;8.408;2022-07-06T10:30:10;96836.13;;;23.31;44.17
55671;BME280;41551;47.500;8.408;2022-07-06T10:32:39;96847.31;;;23.16;43.86
55671;BME280;41551;47.500;8.408;2022-07-06T10:35:08;96846.47;;;23.06;43.78
55671;BME280;41551;47.500;8.408;2022-07-06T10:37:35;96835.84;;;23.01;44.31
55671;BME280;41551;47.500;8.408;2022-07-06T10:40:02;96838.13;;;23.17;41.60
55671;BME280;41551;47.500;8.408;2022-07-06T10:42:49;96837.44;;;23.02;41.55
55671;BME280;41551;47.500;8.408;2022-07-06T10:45:49;96834.03;;;23.19;41.25
55671;BME280;41551;47.500;8.408;2022-07-06T10:48:17;96830.81;;;23.09;42.18
55671;BME280;41551;47.500;8.408;2022-07-06T10:50:47;96824.41;;;22.87;42.56
55671;BME280;41551;47.500;8.408;2022-07-06T10:53:15;96831.91;;;23.07;42.85
55671;BME280;41551;47.500;8.408;2022-07-06T10:55:44;96829.34;;;23.02;41.14
55671;BME280;41551;47.500;8.408;2022-07-06T10:58:14;96822.91;;;23.12;40.76
55671;BME280;41551;47.500;8.408;2022-07-06T11:00:48;96822.72;;;23.09;40.56
55671;BME280;41551;47.500;8.408;2022-07-06T11:03:33;96814.63;;;23.00;39.98
55671;BME280;41551;47.500;8.408;2022-07-06T11:06:01;96816.97;;;22.84;42.26
55671;BME280;41551;47.500;8.408;2022-07-06T11:08:46;96809.00;;;22.79;42.38
55671;BME280;41551;47.500;8.408;2022-07-06T11:11:14;96811.22;;;22.77;42.94
55671;BME280;41551;47.500;8.408;2022-07-06T11:13:47;96805.91;;;22.85;42.37
55671;BME280;41551;47.500;8.408;2022-07-06T11:16:15;96802.81;;;22.69;42.85
55671;BME280;41551;47.500;8.408;2022-07-06T11:18:46;96800.50;;;22.85;42.38
55671;BME280;41551;47.500;8.408;2022-07-06T11:21:21;96798.59;;;22.86;42.78
55671;BME280;41551;47.500;8.408;2022-07-06T11:23:49;96803.06;;;22.91;43.42
55671;BME280;41551;47.500;8.408;2022-07-06T11:26:17;96801.03;;;22.96;44.88
55671;BME280;41551;47.500;8.408;2022-07-06T11:28:46;96792.53;;;23.12;43.67
55671;BME280;41551;47.500;8.408;2022-07-06T11:31:17;96785.16;;;23.26;43.91
55671;BME280;41551;47.500;8.408;2022-07-06T11:33:47;96792.38;;;23.17;45.37
55671;BME280;41551;47.500;8.408;2022-07-06T11:36:15;96797.63;;;23.22;45.06
55671;BME280;41551;47.500;8.408;2022-07-06T11:38:43;96786.72;;;23.36;42.94
55671;BME280;41551;47.500;8.408;2022-07-06T11:41:10;96784.34;;;23.34;43.70
55671;BME280;41551;47.500;8.408;2022-07-06T11:43:41;96776.13;;;23.39;45.26
55671;BME280;41551;47.500;8.408;2022-07-06T11:46:36;96778.16;;;23.16;45.23
55671;BME280;41551;47.500;8.408;2022-07-06T11:49:05;96781.50;;;23.22;44.60
55671;BME280;41551;47.500;8.408;2022-07-06T11:51:34;96782.75;;;23.33;44.66
55671;BME280;41551;47.500;8.408;2022-07-06T11:54:07;96778.69;;;23.45;42.41
55671;BME280;41551;47.500;8.408;2022-07-06T11:56:34;96781.00;;;23.29;42.49
55671;BME280;41551;47.500;8.408;2022-07-06T11:59:02;96783.25;;;23.44;40.02
55671;BME280;41551;47.500;8.408;2022-07-06T12:01:29;96781.03;;;23.37;39.76
55671;BME280;41551;47.500;8.408;2022-07-06T12:03:59;96782.31;;;23.40;41.39
55671;BME280;41551;47.500;8.408;2022-07-06T12:06:26;96778.34;;;23.37;40.88
55671;BME280;41551;47.500;8.408;2022-07-06T12:08:54;96777.72;;;23.40;38.11
55671;BME280;41551;47.500;8.408;2022-07-06T12:11:23;96777.88;;;23.44;40.67
55671;BME280;41551;47.500;8.408;2022-07-06T12:13:51;96776.91;;;23.49;40.05
55671;BME280;41551;47.500;8.408;2022-07-06T12:16:19;96778.69;;;23.45;39.70
55671;BME280;41551;47.500;8.408;2022-07-06T12:18:48;96777.09;;;23.52;40.31
55671;BME280;41551;47.500;8.408;2022-07-06T12:21:19;96779.47;;;23.71;40.61
55671;BME280;41551;47.500;8.408;2022-07-06T12:23:48;96784.69;;;23.59;39.43
55671;BME280;41551;47.500;8.408;2022-07-06T12:26:16;96783.75;;;23.72;40.60
55671;BME280;41551;47.500;8.408;2022-07-06T12:28:44;96778.53;;;23.58;40.30
55671;BME280;41551;47.500;8.408;2022-07-06T12:31:11;96764.09;;;23.63;41.40
55671;BME280;41551;47.500;8.408;2022-07-06T12:33:38;96769.00;;;23.78;40.91
55671;BME280;41551;47.500;8.408;2022-07-06T12:36:12;96769.50;;;23.89;40.59
55671;BME280;41551;47.500;8.408;2022-07-06T12:38:48;96750.31;;;24.00;40.73
55671;BME280;41551;47.500;8.408;2022-07-06T12:41:26;96765.06;;;23.85;41.40
55671;BME280;41551;47.500;8.408;2022-07-06T12:44:03;96751.28;;;23.95;40.90
55671;BME280;41551;47.500;8.408;2022-07-06T12:46:33;96750.16;;;24.05;42.17
55671;BME280;41551;47.500;8.408;2022-07-06T12:49:01;96748.69;;;24.25;40.02
55671;BME280;41551;47.500;8.408;2022-07-06T12:51:28;96745.03;;;24.21;39.72
55671;BME280;41551;47.500;8.408;2022-07-06T12:54:16;96743.31;;;24.25;40.42
55671;BME280;41551;47.500;8.408;2022-07-06T12:57:06;96741.91;;;24.19;40.19
55671;BME280;41551;47.500;8.408;2022-07-06T12:59:35;96754.88;;;24.17;41.13
55671;BME280;41551;47.500;8.408;2022-07-06T13:02:03;96743.16;;;24.12;40.41
55671;BME280;41551;47.500;8.408;2022-07-06T13:04:32;96739.97;;;24.28;39.96